Terminal Aerodrome Forecast
Issued by NWS

Home | Current Version | Previous Version | Text Only | Print | Product List | Glossary On
Versions: 1 2 3 4 5 6 7 8 9 10 11 12 13 14
432
FTUS45 KABQ 262100 AAA
TAFFMN
TAF AMD
KFMN 262100Z 2621/2718 27012G19KT P6SM BKN100
     FM270200 07005KT P6SM SCT070
     FM270900 09008KT P6SM BKN060
     FM271600 21011G19KT P6SM VCSH BKN050=

USA.gov is the U.S. government's official web portal to all federal, state and local government web resources and services.